Aérodrome :
LOGIN :

S'inscrire | Disclaimer

   EN    FR    IT 

 










Légende :    VFR   VFR Marginal   IFR   IFR Intensif   IFR Très Intensif
Visi : 
Plafond : 
>= 8 km
>= 3000ft
5 à 8 km
1000 à 3000 ft
1500m à 5 km
500 à 1000 ft
800 à 1500m
200 à 500 ft
< 800m
< 200 ft
Symboles :   Orages  Brouillard  Fortes neiges  Fortes précipitations  Vent > 20 kt
SIGMETs :   Divers  Orages  Givrage  Turbulence  Onde Orograph.  Cendres Volcan.







- Altitude de l'aérodrome : 362 ft
- Code IATA : WAW


EPWA - Warsaw Okecie

DERNIER METAR :
  • 120330Z 04006KT 8000 FEW025 01/M00 Q1017 NOSIG

METARs EXPIRÉS :
  • 120300Z 06006KT 9000 SCT020 01/00 Q1016 NOSIG
  • 120230Z 05006KT 8000 FEW006 SCT026 02/00 Q1016 NOSIG
  • 120200Z 05004KT 7000 -RA BKN017 01/00 Q1016 NOSIG
  • 120130Z 05006KT 7000 FEW007 BKN023 01/00 Q1016 NOSIG
  • 120100Z 07005KT 7000 FEW007 BKN036 01/00 Q1016 NOSIG

TAF TAF EPWA
Valide du 12 à 03h jusqu'au 13 à 03h UTC


120230Z 1203/1303 04005KT 7000 BKN025
PROB40
TEMPO 1203/1208 4000 BR BKN005
PROB40
TEMPO 1209/1215 4000 -SN BKN005 BKN012
TEMPO 1215/1303 2500 SN SNRA BR BKN003 BKN010
Pas de NOTAMs connus pour ce terrain.



MET'MAP, la Météo Aéronautique d'un coup d'oeil ! - Copyright ORBIFLY Décembre 2007 - Disclaimer

ORBIFLY MET'MAP TEAM :

Programmation & Développement : Alexandra Zaïnal
Conception & Développement : Baudouin d'Aumeries
Co-Programmation & Développement : Marc-Olivier Méhu
Soutien technique & logistique : Manuel Goepfert

Contact : metmap@orbifly.com




SOURCES & CREDITS :

   NOAA